createdAt,value
2022-12-11T00:00:37.481Z,92185.91
2022-12-11T00:05:41.889Z,92151.53
2022-12-11T00:10:49.840Z,92158.66
2022-12-11T00:15:53.636Z,92155.97
2022-12-11T00:21:01.883Z,92142.22
2022-12-11T00:26:14.780Z,92136.97
2022-12-11T00:31:19.706Z,92154.00
2022-12-11T00:36:25.872Z,92151.41
2022-12-11T00:41:29.323Z,92162.22
2022-12-11T00:46:32.422Z,92177.97
2022-12-11T00:51:35.828Z,92191.44
2022-12-11T00:56:39.447Z,92207.16
2022-12-11T01:01:42.968Z,92206.72
2022-12-11T01:06:46.481Z,92211.84
2022-12-11T01:11:49.809Z,92215.00
2022-12-11T01:16:54.186Z,92217.03
2022-12-11T01:21:57.801Z,92211.00
2022-12-11T01:27:00.858Z,92224.63
2022-12-11T01:32:04.985Z,92229.84
2022-12-11T01:37:08.536Z,92215.03
2022-12-11T01:42:18.949Z,92220.28
2022-12-11T01:47:22.664Z,92220.50
2022-12-11T01:52:26.216Z,92223.84
2022-12-11T01:57:30.490Z,92204.00
2022-12-11T02:02:34.369Z,92200.97
2022-12-11T02:07:48.935Z,92210.38
2022-12-11T02:13:02.203Z,92244.69
2022-12-11T02:18:32.294Z,92242.44
2022-12-11T02:23:55.581Z,92244.41
2022-12-11T02:29:01.660Z,92243.06
2022-12-11T02:34:13.700Z,92257.44
2022-12-11T02:39:18.915Z,92247.06
2022-12-11T02:44:27.102Z,92265.75
2022-12-11T02:49:33.495Z,92258.84
2022-12-11T02:54:38.022Z,92257.38
2022-12-11T02:59:44.173Z,92272.53
2022-12-11T03:04:49.034Z,92276.06
2022-12-11T03:09:53.133Z,92263.09
2022-12-11T03:14:59.772Z,92248.75
2022-12-11T03:20:27.267Z,92258.25
2022-12-11T03:25:53.660Z,92226.19
2022-12-11T03:30:57.676Z,92239.19
2022-12-11T03:36:11.442Z,92260.44
2022-12-11T03:41:17.763Z,92250.53
2022-12-11T03:46:25.342Z,92252.25
2022-12-11T03:51:33.271Z,92265.47
2022-12-11T03:56:39.012Z,92290.84
2022-12-11T04:01:42.757Z,92282.75
2022-12-11T04:06:46.230Z,92287.88
2022-12-11T04:11:49.751Z,92270.75
2022-12-11T04:16:53.883Z,92276.50
2022-12-11T04:22:16.646Z,92287.44
2022-12-11T04:27:39.805Z,92295.56
2022-12-11T04:32:44.225Z,92322.59
2022-12-11T04:37:48.224Z,92313.47
2022-12-11T04:42:51.367Z,92308.31
2022-12-11T04:47:54.628Z,92303.69
2022-12-11T04:52:58.480Z,92312.78
2022-12-11T04:58:01.524Z,92262.19
2022-12-11T05:03:05.409Z,92321.16
2022-12-11T05:08:09.386Z,92341.03
2022-12-11T05:13:12.391Z,92308.31
2022-12-11T05:18:15.804Z,92348.69
2022-12-11T05:23:19.242Z,92336.78
2022-12-11T05:28:25.150Z,92360.50
2022-12-11T05:33:29.090Z,92365.94
2022-12-11T05:38:32.698Z,92303.72
2022-12-11T05:43:36.690Z,92339.19
2022-12-11T05:48:41.763Z,92351.56
2022-12-11T05:53:47.264Z,92369.56
2022-12-11T05:58:51.243Z,92368.81
2022-12-11T06:03:55.738Z,92370.75
2022-12-11T06:09:00.812Z,92372.97
2022-12-11T06:14:04.799Z,92391.59
2022-12-11T06:19:08.110Z,92389.69
2022-12-11T06:24:12.370Z,92419.59
2022-12-11T06:29:16.113Z,92426.88
2022-12-11T06:34:19.084Z,92440.31
2022-12-11T06:39:23.438Z,92444.34
2022-12-11T06:44:26.519Z,92473.75
2022-12-11T06:49:30.737Z,92486.03
2022-12-11T06:54:33.934Z,92490.53
2022-12-11T06:59:37.343Z,92507.63
2022-12-11T07:04:41.618Z,92501.69
2022-12-11T07:09:44.650Z,92503.75
2022-12-11T07:14:48.258Z,92497.56
2022-12-11T07:19:51.584Z,92499.72
2022-12-11T07:24:54.640Z,92475.72
2022-12-11T07:29:57.989Z,92476.00
2022-12-11T07:35:01.482Z,92496.25
2022-12-11T07:40:05.907Z,92507.88
2022-12-11T07:45:10.323Z,92498.34
2022-12-11T07:50:13.755Z,92491.94
2022-12-11T07:55:16.824Z,92503.53
2022-12-11T08:00:20.128Z,92520.25
2022-12-11T08:05:23.308Z,92520.69
2022-12-11T08:10:26.955Z,92528.00
2022-12-11T08:15:30.729Z,92524.13
2022-12-11T08:20:34.272Z,92526.81
2022-12-11T08:25:37.536Z,92523.25
2022-12-11T08:30:41.861Z,92535.53
2022-12-11T08:35:46.621Z,92528.84
2022-12-11T08:40:50.291Z,92548.38
2022-12-11T08:45:53.542Z,92540.16
2022-12-11T08:51:03.918Z,92537.53
2022-12-11T08:56:10.511Z,92534.16
2022-12-11T09:01:17.297Z,92539.25
2022-12-11T09:06:23.767Z,92513.50
2022-12-11T09:11:30.445Z,92542.03
2022-12-11T09:16:37.908Z,92553.25
2022-12-11T09:21:43.152Z,92566.41
2022-12-11T09:26:47.508Z,92556.50
2022-12-11T09:31:50.747Z,92538.19
2022-12-11T09:36:55.089Z,92530.94
2022-12-11T09:42:16.553Z,92537.56
2022-12-11T09:47:34.673Z,92523.56
2022-12-11T09:52:46.697Z,92537.59
2022-12-11T09:58:14.675Z,92526.22
2022-12-11T10:03:39.516Z,92550.66
2022-12-11T10:08:51.764Z,92552.00
2022-12-11T10:53:52.381Z,92586.38
2022-12-11T10:59:08.005Z,92574.38
2022-12-11T11:04:45.185Z,92565.09
2022-12-11T11:09:49.269Z,92554.28
2022-12-11T11:15:15.509Z,92573.59
2022-12-11T11:20:22.476Z,92557.19
2022-12-11T11:25:29.230Z,92551.63
2022-12-11T11:30:36.180Z,92534.16
2022-12-11T11:35:45.542Z,92532.19
2022-12-11T11:41:05.686Z,92526.38
2022-12-11T11:46:13.553Z,92518.59
2022-12-11T11:51:33.129Z,92533.56
2022-12-11T11:56:38.870Z,92517.22
2022-12-11T12:01:43.722Z,92502.38
2022-12-11T12:07:21.392Z,92495.09
2022-12-11T12:12:35.617Z,92510.41
2022-12-11T12:17:56.816Z,92500.09
2022-12-11T12:23:36.331Z,92495.50
2022-12-11T12:29:03.218Z,92484.28
2022-12-11T12:34:28.143Z,92480.03
2022-12-11T12:39:57.297Z,92485.75
2022-12-11T12:45:34.661Z,92483.13
2022-12-11T12:50:49.758Z,92486.34
2022-12-11T12:55:54.528Z,92484.97
2022-12-11T13:01:15.637Z,92491.63
2022-12-11T13:06:43.452Z,92479.59
2022-12-11T13:11:53.748Z,92471.56
2022-12-11T13:17:26.953Z,92468.06
2022-12-11T13:22:31.485Z,92479.44
2022-12-11T13:27:43.976Z,92484.63
2022-12-11T13:33:09.673Z,92490.34
2022-12-11T13:38:20.302Z,92487.78
2022-12-11T13:43:28.423Z,92502.88
2022-12-11T13:48:38.514Z,92502.53
2022-12-11T13:53:41.607Z,92501.19
2022-12-11T13:58:45.272Z,92515.16
2022-12-11T14:03:55.044Z,92527.94
2022-12-11T14:09:01.595Z,92538.38
2022-12-11T14:14:18.635Z,92566.50
2022-12-11T14:19:25.063Z,92576.88
2022-12-11T14:24:29.681Z,92571.31
2022-12-11T14:29:34.273Z,92588.84
2022-12-11T14:34:46.115Z,92580.91
2022-12-11T14:40:10.355Z,92586.28
2022-12-11T14:45:21.831Z,92586.47
2022-12-11T14:50:35.518Z,92575.56
2022-12-11T14:55:40.395Z,92586.94
2022-12-11T15:00:43.645Z,92603.84
2022-12-11T15:05:57.118Z,92604.78
2022-12-11T15:11:08.786Z,92609.28
2022-12-11T15:16:15.799Z,92616.09
2022-12-11T15:21:19.889Z,92618.03
2022-12-11T15:26:39.622Z,92625.34
2022-12-11T15:31:43.278Z,92624.38
2022-12-11T15:36:46.245Z,92629.69
2022-12-11T15:41:49.309Z,92633.66
2022-12-11T15:46:52.240Z,92630.56
2022-12-11T15:51:55.720Z,92632.06
2022-12-11T15:57:02.489Z,92617.88
2022-12-11T16:02:12.060Z,92615.09
2022-12-11T16:07:20.380Z,92605.91
2022-12-11T16:12:23.816Z,92618.78
2022-12-11T16:17:26.824Z,92631.78
2022-12-11T16:22:30.596Z,92631.53
2022-12-11T16:27:33.516Z,92636.19
2022-12-11T16:32:37.348Z,92622.59
2022-12-11T16:37:40.297Z,92621.75
2022-12-11T16:42:43.747Z,92631.56
2022-12-11T16:47:47.371Z,92631.97
2022-12-11T16:52:50.966Z,92619.38
2022-12-11T16:57:54.630Z,92631.69
2022-12-11T17:02:59.711Z,92629.94
2022-12-11T17:08:03.411Z,92648.09
2022-12-11T17:13:07.021Z,92648.25
2022-12-11T17:18:12.074Z,92646.09
2022-12-11T17:23:15.269Z,92652.34
2022-12-11T17:28:18.994Z,92644.44
2022-12-11T17:33:22.679Z,92635.94
2022-12-11T17:38:26.357Z,92631.63
2022-12-11T17:43:29.855Z,92615.53
2022-12-11T17:48:33.565Z,92627.69
2022-12-11T17:53:37.105Z,92644.22
2022-12-11T17:58:40.838Z,92645.38
2022-12-11T18:03:44.503Z,92646.84
2022-12-11T18:08:48.111Z,92659.97
2022-12-11T18:13:53.180Z,92656.13
2022-12-11T18:18:57.149Z,92659.75
2022-12-11T18:24:01.169Z,92678.16
2022-12-11T18:29:04.681Z,92681.66
2022-12-11T18:34:08.575Z,92683.81
2022-12-11T18:39:11.942Z,92684.72
2022-12-11T18:44:15.381Z,92700.75
2022-12-11T18:49:18.594Z,92700.66
2022-12-11T18:54:22.450Z,92700.41
2022-12-11T18:59:25.546Z,92716.03
2022-12-11T19:04:29.385Z,92715.66
2022-12-11T19:09:37.004Z,92714.50
2022-12-11T19:14:41.938Z,92721.47
2022-12-11T19:19:46.413Z,92723.75
2022-12-11T19:24:50.122Z,92722.91
2022-12-11T19:29:53.373Z,92738.50
2022-12-11T19:34:56.897Z,92742.81
2022-12-11T19:39:59.907Z,92744.69
2022-12-11T19:45:04.295Z,92730.66
2022-12-11T19:50:08.257Z,92738.03
2022-12-11T19:55:13.673Z,92732.59
2022-12-11T20:00:17.581Z,92741.88
2022-12-11T20:05:20.557Z,92742.81
2022-12-11T20:10:23.945Z,92741.28
2022-12-11T20:15:27.516Z,92746.38
2022-12-11T20:20:32.279Z,92737.44
2022-12-11T20:25:35.525Z,92754.16
2022-12-11T20:30:38.899Z,92753.75
2022-12-11T20:35:42.510Z,92769.69
2022-12-11T20:40:47.120Z,92758.41
2022-12-11T20:45:51.333Z,92761.53
2022-12-11T20:50:54.946Z,92754.91
2022-12-11T20:55:58.091Z,92763.84
2022-12-11T21:01:01.470Z,92749.81
2022-12-11T21:06:04.529Z,92753.31
2022-12-11T21:11:08.253Z,92750.50
2022-12-11T21:16:12.635Z,92751.63
2022-12-11T21:21:17.223Z,92740.59
2022-12-11T21:26:21.425Z,92756.63
2022-12-11T21:31:25.391Z,92761.38
2022-12-11T21:36:28.478Z,92767.19
2022-12-11T21:41:31.899Z,92759.75
2022-12-11T21:46:34.977Z,92754.97
2022-12-11T21:51:46.880Z,92762.19
2022-12-11T21:56:50.859Z,92767.94
2022-12-11T22:01:54.771Z,92765.47
2022-12-11T22:06:58.251Z,92776.22
2022-12-11T22:12:01.213Z,92776.34
2022-12-11T22:17:04.276Z,92765.03
2022-12-11T22:22:07.262Z,92762.09
2022-12-11T22:27:10.251Z,92751.44
2022-12-11T22:32:13.223Z,92742.19
2022-12-11T22:37:17.446Z,92735.59
2022-12-11T22:42:20.870Z,92740.63
2022-12-11T22:47:24.443Z,92729.22
2022-12-11T22:52:27.617Z,92731.19
2022-12-11T22:57:31.331Z,92722.97
2022-12-11T23:02:34.440Z,92714.44
2022-12-11T23:07:37.760Z,92716.91
2022-12-11T23:12:41.853Z,92725.84
2022-12-11T23:17:44.775Z,92727.31
2022-12-11T23:22:48.353Z,92728.88
2022-12-11T23:27:51.896Z,92704.41
2022-12-11T23:32:55.281Z,92702.72
2022-12-11T23:37:58.330Z,92697.00
2022-12-11T23:43:01.549Z,92704.38
2022-12-11T23:48:05.006Z,92690.09
2022-12-11T23:53:08.876Z,92699.28
2022-12-11T23:58:13.150Z,92694.06
